Time;durP1;ratioP1;P1;durP2;ratioP2;P2;SDS_P1;SDS_P2;PMS_P1;PMS_P2;Temp;Humidity;BMP_temperature;BMP_pressure;BME280_temperature;BME280_humidity;BME280_pressure;Samples;Min_cycle;Max_cycle;Signal;HPM_P1;HPM_P2
2022/05/02 00:00:48;;;;;;;12.63;10.88;;;9.20;70.80;;;;;;5052728;28;20041;-66
2022/05/02 00:03:14;;;;;;;12.68;10.73;;;9.20;70.80;;;;;;5054527;28;20062;-66
2022/05/02 00:05:40;;;;;;;11.90;10.63;;;9.20;71.80;;;;;;5058477;28;20033;-65
2022/05/02 00:08:06;;;;;;;11.63;10.43;;;9.10;71.00;;;;;;5058883;28;20073;-66
2022/05/02 00:10:32;;;;;;;12.85;10.07;;;9.00;71.00;;;;;;5057471;28;20040;-66
2022/05/02 00:12:58;;;;;;;12.77;11.18;;;9.00;71.90;;;;;;5059364;28;20517;-66
2022/05/02 00:15:24;;;;;;;16.05;11.25;;;9.00;72.00;;;;;;5059104;28;20044;-66
2022/05/02 00:17:56;;;;;;;11.20;10.00;;;9.00;71.30;;;;;;5057439;28;20039;-65
2022/05/02 00:20:34;;;;;;;10.68;9.57;;;8.90;71.30;;;;;;5059666;28;20068;-66
2022/05/02 00:23:01;;;;;;;14.45;10.50;;;8.90;71.40;;;;;;5056720;28;20525;-66
2022/05/02 00:25:27;;;;;;;11.85;10.48;;;8.90;71.30;;;;;;5060894;28;20071;-66
2022/05/02 00:27:53;;;;;;;12.90;9.88;;;8.90;71.40;;;;;;5058321;28;20462;-66
2022/05/02 00:30:19;;;;;;;14.13;9.10;;;8.80;71.40;;;;;;5058958;28;20243;-65
2022/05/02 00:32:45;;;;;;;10.38;8.40;;;8.80;71.50;;;;;;5058518;28;20417;-66
2022/05/02 00:35:12;;;;;;;9.05;7.75;;;8.70;71.60;;;;;;5059108;28;21577;-65
2022/05/02 00:37:38;;;;;;;10.57;8.23;;;8.70;71.70;;;;;;5058393;28;20036;-66
2022/05/02 00:40:06;;;;;;;9.38;8.38;;;8.70;71.70;;;;;;5057632;28;20506;-66
2022/05/02 00:42:32;;;;;;;10.63;8.88;;;8.70;71.90;;;;;;5058453;28;20493;-66
2022/05/02 00:44:58;;;;;;;9.85;8.85;;;8.60;71.80;;;;;;5057112;28;20039;-65
2022/05/02 00:47:23;;;;;;;13.02;9.30;;;8.60;71.80;;;;;;5059902;28;20029;-66
2022/05/02 00:49:50;;;;;;;11.85;8.95;;;8.50;71.80;;;;;;5056178;28;20064;-66
2022/05/02 00:52:16;;;;;;;10.13;8.77;;;8.50;71.90;;;;;;5056347;28;20063;-65
2022/05/02 00:54:43;;;;;;;12.52;9.23;;;8.40;72.00;;;;;;5062288;28;20040;-66
2022/05/02 00:57:12;;;;;;;12.77;9.00;;;8.30;72.30;;;;;;5054904;28;20051;-64
2022/05/02 00:59:38;;;;;;;11.25;8.80;;;8.30;72.80;;;;;;5059885;28;20040;-66
2022/05/02 01:02:05;;;;;;;10.10;8.48;;;8.30;72.80;;;;;;5055561;28;20081;-65
2022/05/02 01:04:31;;;;;;;11.52;8.85;;;8.30;72.80;;;;;;5054194;28;20040;-66
2022/05/02 01:07:10;;;;;;;11.13;9.20;;;8.30;72.70;;;;;;5056414;28;20041;-65
2022/05/02 01:09:38;;;;;;;10.43;8.68;;;8.30;72.80;;;;;;5058996;28;20433;-66
2022/05/02 01:12:10;;;;;;;10.10;8.77;;;8.30;72.60;;;;;;5055486;28;20037;-66
2022/05/02 01:14:36;;;;;;;13.93;9.57;;;8.30;72.60;;;;;;5054877;28;20032;-66
2022/05/02 01:17:05;;;;;;;10.38;8.82;;;8.30;72.50;;;;;;5056156;28;20119;-66
2022/05/02 01:19:31;;;;;;;11.05;9.25;;;8.30;72.60;;;;;;5058347;28;20028;-65
2022/05/02 01:21:57;;;;;;;11.27;9.20;;;8.30;72.40;;;;;;5056166;28;20044;-66
2022/05/02 01:24:35;;;;;;;10.70;9.20;;;8.20;72.40;;;;;;5059826;28;20043;-66
2022/05/02 01:27:01;;;;;;;10.38;8.88;;;8.30;72.90;;;;;;5055196;28;20039;-63
2022/05/02 01:29:27;;;;;;;10.18;8.88;;;8.20;72.30;;;;;;5058259;28;20567;-66
2022/05/02 01:31:55;;;;;;;10.07;8.73;;;8.30;72.30;;;;;;5055709;28;20036;-66
2022/05/02 01:34:21;;;;;;;10.75;9.20;;;8.30;72.20;;;;;;5056849;28;20029;-66
2022/05/02 01:36:47;;;;;;;11.93;9.68;;;8.20;72.00;;;;;;5056263;28;20032;-65
2022/05/02 01:39:13;;;;;;;11.02;9.07;;;8.20;72.00;;;;;;5056082;28;20063;-65
2022/05/02 01:41:39;;;;;;;13.52;10.35;;;8.10;72.10;;;;;;5058188;28;20509;-66
2022/05/02 01:44:05;;;;;;;17.08;10.38;;;8.10;72.30;;;;;;5053689;28;20033;-65
2022/05/02 01:46:31;;;;;;;13.50;9.50;;;8.00;72.40;;;;;;5055580;28;20027;-66
2022/05/02 01:48:57;;;;;;;11.70;9.48;;;8.00;72.50;;;;;;5072733;28;20033;-65
2022/05/02 01:51:23;;;;;;;11.70;9.13;;;7.90;72.60;;;;;;5054276;28;20025;-65
2022/05/02 01:53:48;;;;;;;13.88;9.77;;;7.90;72.70;;;;;;5057151;28;20021;-66
2022/05/02 01:56:14;;;;;;;12.27;9.90;;;7.90;72.80;;;;;;5057381;28;20430;-66
2022/05/02 01:58:40;;;;;;;11.38;9.70;;;7.90;72.90;;;;;;5055614;28;20021;-66
2022/05/02 02:01:05;;;;;;;14.02;10.32;;;7.90;72.80;;;;;;5056056;28;20582;-66
2022/05/02 02:03:31;;;;;;;13.32;10.68;;;7.90;72.80;;;;;;5056392;28;20041;-66
2022/05/02 02:05:58;;;;;;;14.32;10.45;;;7.80;72.80;;;;;;5055307;28;20067;-65
2022/05/02 02:08:35;;;;;;;12.85;10.43;;;7.80;72.90;;;;;;5055878;28;20040;-65
2022/05/02 02:11:04;;;;;;;14.70;11.13;;;7.70;73.30;;;;;;5053999;28;20538;-65
2022/05/02 02:13:30;;;;;;;14.48;11.50;;;7.70;73.00;;;;;;5057255;28;20044;-65
2022/05/02 02:15:56;;;;;;;15.00;11.20;;;7.60;73.10;;;;;;5058055;28;20123;-65
2022/05/02 02:18:22;;;;;;;14.85;10.57;;;7.60;73.30;;;;;;5061908;28;21358;-66
2022/05/02 02:20:49;;;;;;;13.95;10.45;;;7.50;73.50;;;;;;5056613;28;20036;-66
2022/05/02 02:23:16;;;;;;;15.18;11.10;;;7.50;73.80;;;;;;5053850;28;20410;-66
2022/05/02 02:25:43;;;;;;;13.05;10.77;;;7.50;73.70;;;;;;5055158;28;20041;-66
2022/05/02 02:28:09;;;;;;;14.65;10.82;;;7.50;73.50;;;;;;5052339;28;20037;-66
2022/05/02 02:30:34;;;;;;;13.55;10.85;;;7.50;73.40;;;;;;5057356;28;20067;-66
2022/05/02 02:33:01;;;;;;;15.38;11.15;;;7.40;73.50;;;;;;5055713;28;20099;-65
2022/05/02 02:35:28;;;;;;;12.88;10.60;;;7.40;73.50;;;;;;5053740;28;20431;-66
2022/05/02 02:37:54;;;;;;;16.00;12.43;;;7.30;73.70;;;;;;5056003;28;20498;-66
2022/05/02 02:40:20;;;;;;;16.65;12.05;;;7.30;73.70;;;;;;5055779;28;20041;-66
2022/05/02 02:42:45;;;;;;;15.35;12.32;;;7.20;73.90;;;;;;5058583;28;20053;-65
2022/05/02 02:45:11;;;;;;;13.73;11.60;;;7.20;74.00;;;;;;5055331;28;20037;-65
2022/05/02 02:47:37;;;;;;;15.63;12.00;;;7.20;74.60;;;;;;5055111;28;20040;-66
2022/05/02 02:50:03;;;;;;;15.25;12.48;;;7.20;74.70;;;;;;5055921;28;20094;-65
2022/05/02 02:52:29;;;;;;;19.17;13.88;;;7.20;74.60;;;;;;5054294;28;20079;-66
2022/05/02 02:54:55;;;;;;;20.15;14.60;;;7.20;74.60;;;;;;5054994;28;20702;-65
2022/05/02 02:57:20;;;;;;;22.92;15.73;;;7.20;74.60;;;;;;5057509;28;20029;-66
2022/05/02 02:59:46;;;;;;;20.20;14.77;;;7.20;74.60;;;;;;5058574;28;20040;-66
2022/05/02 03:02:12;;;;;;;20.10;15.18;;;7.20;74.60;;;;;;5055513;28;20036;-66
2022/05/02 03:07:24;;;;;;;20.30;15.20;;;7.20;74.60;;;;;;5052691;28;20402;-66
2022/05/02 03:09:50;;;;;;;19.88;15.27;;;7.30;75.00;;;;;;5054878;28;20029;-63
2022/05/02 03:12:16;;;;;;;18.15;13.95;;;7.20;75.10;;;;;;5052970;28;20028;-66
2022/05/02 03:14:41;;;;;;;21.67;16.90;;;7.30;75.10;;;;;;5053197;28;20043;-65
2022/05/02 03:17:07;;;;;;;21.55;16.10;;;7.30;75.10;;;;;;5054401;28;20079;-66
2022/05/02 03:19:33;;;;;;;20.02;15.27;;;7.30;75.10;;;;;;5055916;28;20063;-65
2022/05/02 03:21:58;;;;;;;20.30;14.88;;;7.40;74.90;;;;;;5053881;28;20089;-66
2022/05/02 03:24:24;;;;;;;19.10;14.38;;;7.40;74.60;;;;;;5052788;28;20036;-66
2022/05/02 03:26:50;;;;;;;20.55;14.48;;;7.40;74.50;;;;;;5053021;28;20035;-65
2022/05/02 03:29:15;;;;;;;19.73;14.05;;;7.40;74.60;;;;;;5054094;28;20310;-65
2022/05/02 03:31:41;;;;;;;18.85;14.30;;;7.40;74.60;;;;;;5055318;28;20056;-66
2022/05/02 03:34:07;;;;;;;17.27;13.43;;;7.40;74.60;;;;;;5054023;28;20665;-66
2022/05/02 03:36:34;;;;;;;18.95;14.18;;;7.40;74.40;;;;;;5055571;28;20036;-65
2022/05/02 03:38:59;;;;;;;21.08;15.05;;;7.50;74.20;;;;;;5054756;28;20032;-66
2022/05/02 03:41:25;;;;;;;18.13;13.13;;;7.50;74.00;;;;;;5053638;28;20040;-66
2022/05/02 03:43:50;;;;;;;17.42;13.63;;;7.50;73.90;;;;;;5054768;28;20306;-65
2022/05/02 03:46:16;;;;;;;21.15;14.18;;;7.50;73.60;;;;;;5052683;28;20044;-66
2022/05/02 03:48:44;;;;;;;29.55;18.48;;;7.50;73.60;;;;;;5054409;28;20510;-65
2022/05/02 03:51:10;;;;;;;35.65;19.20;;;7.50;73.60;;;;;;5052571;28;20138;-66
2022/05/02 03:53:36;;;;;;;22.85;15.88;;;7.50;73.70;;;;;;5054041;28;20087;-67
2022/05/02 03:56:01;;;;;;;18.88;14.18;;;7.50;73.80;;;;;;5057747;28;20036;-65
2022/05/02 03:58:27;;;;;;;19.27;15.90;;;7.50;73.70;;;;;;5054566;28;20116;-65
2022/05/02 04:00:52;;;;;;;20.63;15.85;;;7.50;73.50;;;;;;5056626;28;20127;-65
2022/05/02 04:03:18;;;;;;;17.85;13.93;;;7.60;73.60;;;;;;5054018;28;20570;-66
2022/05/02 04:05:44;;;;;;;18.33;12.68;;;7.50;73.50;;;;;;5054340;28;22841;-66
2022/05/02 04:08:09;;;;;;;16.05;12.10;;;7.60;73.50;;;;;;5052998;28;20245;-66
2022/05/02 04:10:35;;;;;;;15.48;11.23;;;7.50;73.50;;;;;;5053773;28;20036;-65
2022/05/02 04:13:00;;;;;;;17.30;12.35;;;7.60;73.30;;;;;;5057711;28;20051;-65
2022/05/02 04:15:26;;;;;;;20.73;13.13;;;7.60;73.30;;;;;;5056107;28;20486;-66
2022/05/02 04:17:52;;;;;;;20.02;13.60;;;7.60;73.20;;;;;;5055456;28;20048;-65
2022/05/02 04:20:17;;;;;;;19.02;13.80;;;7.60;73.10;;;;;;5053355;28;20063;-66
2022/05/02 04:22:43;;;;;;;17.98;13.65;;;7.60;73.00;;;;;;5054594;28;20522;-65
2022/05/02 04:25:09;;;;;;;20.80;15.25;;;7.60;73.90;;;;;;5051635;28;20030;-65
2022/05/02 04:27:34;;;;;;;22.45;15.27;;;7.60;73.00;;;;;;5054208;28;20041;-68
2022/05/02 04:30:01;;;;;;;21.33;15.52;;;7.60;73.20;;;;;;5056208;28;20028;-68
2022/05/02 04:32:26;;;;;;;24.95;15.35;;;7.60;72.70;;;;;;5050660;28;20029;-67
2022/05/02 04:34:58;;;;;;;22.30;16.13;;;7.60;72.60;;;;;;5041132;28;20092;-64
2022/05/02 04:37:23;;;;;;;20.17;15.50;;;7.60;72.60;;;;;;5051713;28;20524;-67
2022/05/02 04:39:49;;;;;;;18.70;14.43;;;7.60;72.70;;;;;;5047729;28;20040;-67
2022/05/02 04:42:14;;;;;;;19.92;14.75;;;7.50;72.80;;;;;;5050474;28;20029;-67
2022/05/02 04:44:40;;;;;;;19.38;14.52;;;7.60;73.00;;;;;;5050499;28;20405;-68
2022/05/02 04:47:06;;;;;;;19.42;14.05;;;7.60;73.20;;;;;;5053090;28;20029;-67
2022/05/02 04:49:32;;;;;;;18.52;13.80;;;7.60;73.00;;;;;;5057073;28;20556;-68
2022/05/02 04:51:57;;;;;;;18.13;12.80;;;7.60;73.00;;;;;;5056868;28;20166;-68
2022/05/02 04:54:23;;;;;;;15.02;11.68;;;7.50;73.10;;;;;;5059135;28;20032;-65
2022/05/02 04:56:49;;;;;;;15.95;13.07;;;7.50;73.10;;;;;;5056942;28;20330;-67
2022/05/02 04:59:15;;;;;;;17.77;13.45;;;7.50;73.40;;;;;;5056996;28;20586;-68
2022/05/02 05:01:41;;;;;;;18.48;13.50;;;7.40;73.50;;;;;;5058658;28;20024;-67
2022/05/02 05:04:07;;;;;;;18.83;13.95;;;7.40;73.60;;;;;;5059600;28;20087;-68
2022/05/02 05:06:33;;;;;;;17.73;14.20;;;7.40;73.90;;;;;;5060101;28;20601;-67
2022/05/02 05:08:58;;;;;;;19.23;14.13;;;7.40;74.10;;;;;;5057711;28;20032;-67
2022/05/02 05:11:44;;;;;;;18.10;13.90;;;7.30;74.30;;;;;;5056553;28;20037;-67
2022/05/02 05:17:56;;;;;;;17.65;13.65;;;7.30;75.70;;;;;;5058035;28;20087;-67
2022/05/02 05:20:40;;;;;;;21.65;15.43;;;7.40;76.00;;;;;;5057727;28;20037;-66
2022/05/02 05:23:40;;;;;;;21.17;15.45;;;7.40;75.30;;;;;;5057550;28;20065;-67
2022/05/02 05:26:26;;;;;;;25.13;17.40;;;7.50;76.30;;;;;;5057608;28;20033;-68
2022/05/02 05:28:57;;;;;;;26.80;17.05;;;7.60;76.60;;;;;;5055894;28;20043;-67
2022/05/02 05:31:57;;;;;;;23.83;17.40;;;7.70;76.00;;;;;;5055506;28;20032;-67
2022/05/02 05:34:44;;;;;;;22.30;16.83;;;7.70;77.00;;;;;;5043637;28;20032;-68
2022/05/02 05:37:37;;;;;;;22.55;17.05;;;7.70;76.50;;;;;;5053067;28;20124;-68
2022/05/02 05:40:20;;;;;;;26.88;16.92;;;7.70;76.50;;;;;;5057456;28;20043;-68
2022/05/02 05:43:04;;;;;;;23.13;16.73;;;7.80;76.60;;;;;;5056627;28;20037;-67
2022/05/02 05:45:35;;;;;;;23.40;18.52;;;7.70;77.10;;;;;;5055235;28;20562;-67
2022/05/02 05:48:26;;;;;;;27.73;19.08;;;7.80;76.90;;;;;;5056711;28;20116;-67
2022/05/02 05:51:02;;;;;;;24.15;17.95;;;7.80;78.10;;;;;;5055499;28;20494;-67
2022/05/02 05:54:00;;;;;;;24.13;18.00;;;7.90;78.00;;;;;;5056194;28;20530;-64
2022/05/02 05:56:28;;;;;;;23.30;17.75;;;7.90;77.90;;;;;;5022668;28;20078;-67
2022/05/02 05:59:23;;;;;;;24.38;18.23;;;8.00;77.40;;;;;;5055488;28;20405;-68
2022/05/02 06:02:00;;;;;;;22.65;17.45;;;8.00;78.60;;;;;;5034656;28;20390;-67
2022/05/02 06:04:30;;;;;;;25.30;18.25;;;8.10;78.20;;;;;;5056235;28;20051;-67
2022/05/02 06:06:58;;;;;;;24.75;18.60;;;8.10;77.80;;;;;;5055958;28;20094;-68
2022/05/02 06:09:29;;;;;;;23.48;17.83;;;8.20;78.00;;;;;;5059343;28;20029;-67
2022/05/02 06:11:59;;;;;;;24.83;18.00;;;8.20;78.10;;;;;;5057314;28;20067;-67
2022/05/02 06:14:31;;;;;;;26.35;19.50;;;8.30;78.40;;;;;;5054947;28;20032;-67
2022/05/02 06:19:46;;;;;;;27.77;20.10;;;8.40;78.00;;;;;;5055771;28;20074;-65
2022/05/02 06:22:12;;;;;;;28.83;20.17;;;8.50;78.20;;;;;;5058148;28;20036;-67
2022/05/02 06:24:44;;;;;;;25.40;20.05;;;8.50;78.20;;;;;;5056432;28;20567;-65
2022/05/02 06:27:11;;;;;;;25.92;19.90;;;8.70;78.70;;;;;;5053560;28;20048;-65
2022/05/02 06:29:40;;;;;;;31.85;20.25;;;8.70;78.60;;;;;;5056420;28;20355;-64
2022/05/02 06:32:10;;;;;;;27.58;20.67;;;8.80;78.70;;;;;;5055478;28;20056;-65
2022/05/02 06:34:37;;;;;;;29.35;20.98;;;9.00;78.80;;;;;;5056490;28;20398;-65
2022/05/02 06:37:26;;;;;;;28.23;21.67;;;9.10;79.40;;;;;;5057487;28;20370;-64
2022/05/02 06:39:57;;;;;;;27.73;21.30;;;9.20;78.90;;;;;;5057092;28;20540;-65
2022/05/02 06:42:29;;;;;;;27.17;19.92;;;9.30;78.50;;;;;;5057458;28;20515;-64
2022/05/02 06:44:54;;;;;;;26.98;21.00;;;9.40;78.60;;;;;;5053478;28;20036;-65
2022/05/02 06:47:31;;;;;;;26.33;21.08;;;9.50;78.20;;;;;;5056879;28;20037;-65
2022/05/02 06:50:01;;;;;;;26.45;20.10;;;9.70;78.90;;;;;;5056435;28;20032;-65
2022/05/02 06:52:39;;;;;;;29.15;21.23;;;9.70;78.40;;;;;;5056835;28;20036;-65
2022/05/02 06:55:26;;;;;;;26.05;20.75;;;9.90;78.80;;;;;;5056757;28;20355;-66
2022/05/02 06:58:06;;;;;;;28.58;21.75;;;10.00;79.00;;;;;;5055751;28;20518;-65
2022/05/02 07:00:43;;;;;;;26.23;19.73;;;10.10;79.10;;;;;;5053084;28;20029;-64
2022/05/02 07:03:26;;;;;;;29.73;22.02;;;10.20;78.50;;;;;;5055512;28;20609;-64
2022/05/02 07:06:22;;;;;;;27.02;21.55;;;10.30;78.40;;;;;;5056623;28;20041;-67
2022/05/02 07:08:59;;;;;;;26.83;21.63;;;10.30;79.90;;;;;;5054742;28;20440;-67
2022/05/02 07:11:43;;;;;;;30.98;23.40;;;10.50;79.20;;;;;;5053063;28;20096;-68
2022/05/02 07:14:24;;;;;;;29.48;23.02;;;10.60;79.20;;;;;;5056463;28;20063;-67
2022/05/02 07:16:53;;;;;;;30.30;22.58;;;10.70;78.70;;;;;;5053821;28;20029;-64
2022/05/02 07:19:34;;;;;;;29.30;22.35;;;10.70;78.70;;;;;;5057558;28;20033;-66
2022/05/02 07:22:07;;;;;;;26.88;21.25;;;10.90;79.00;;;;;;5054251;28;20045;-67
2022/05/02 07:25:11;;;;;;;26.40;21.92;;;11.00;78.60;;;;;;5054369;28;20032;-68
2022/05/02 07:27:54;;;;;;;27.50;20.55;;;11.10;78.70;;;;;;5056007;28;20536;-67
2022/05/02 07:30:22;;;;;;;26.70;20.50;;;11.20;77.80;;;;;;5053737;28;20028;-67
2022/05/02 07:32:49;;;;;;;24.77;20.13;;;11.40;77.70;;;;;;5057086;28;20048;-67
2022/05/02 07:35:15;;;;;;;25.85;18.73;;;11.50;77.70;;;;;;5054258;28;20036;-67
2022/05/02 07:37:43;;;;;;;23.33;19.05;;;11.60;77.70;;;;;;5056893;28;20375;-68
2022/05/02 07:40:12;;;;;;;21.63;18.10;;;11.70;77.50;;;;;;5054078;28;20025;-67
2022/05/02 07:42:38;;;;;;;25.30;19.23;;;11.90;77.40;;;;;;5056215;28;20041;-67
2022/05/02 07:45:10;;;;;;;25.00;19.08;;;11.90;76.90;;;;;;5054404;28;20047;-67
2022/05/02 07:47:36;;;;;;;25.02;19.23;;;12.10;77.00;;;;;;5055453;28;20086;-67
2022/05/02 07:50:03;;;;;;;25.45;19.13;;;12.20;76.80;;;;;;5069139;28;20137;-66
2022/05/02 07:52:34;;;;;;;25.85;19.85;;;12.30;76.70;;;;;;5054436;28;20059;-68
2022/05/02 07:55:02;;;;;;;26.92;21.25;;;12.40;76.40;;;;;;5052426;28;20599;-65
2022/05/02 07:57:32;;;;;;;25.30;19.90;;;12.50;75.80;;;;;;5055352;28;20044;-66
2022/05/02 08:00:00;;;;;;;26.42;20.58;;;12.60;75.40;;;;;;5056955;28;20028;-66
2022/05/02 08:02:26;;;;;;;24.30;19.50;;;12.70;75.30;;;;;;5049488;28;20041;-66
2022/05/02 08:04:56;;;;;;;28.33;20.50;;;12.90;75.20;;;;;;5059616;28;20542;-65
2022/05/02 08:07:34;;;;;;;28.88;20.95;;;13.00;74.80;;;;;;5058752;28;20037;-65
2022/05/02 08:10:21;;;;;;;26.73;20.25;;;13.10;74.60;;;;;;5056711;28;20496;-65
2022/05/02 08:13:04;;;;;;;25.58;19.80;;;13.20;74.40;;;;;;5053481;28;20090;-66
2022/05/02 08:15:48;;;;;;;28.70;21.13;;;13.30;74.10;;;;;;5053723;28;20497;-66
2022/05/02 08:18:52;;;;;;;26.65;20.73;;;13.40;74.20;;;;;;5055574;28;20051;-66
2022/05/02 08:21:22;;;;;;;25.58;20.33;;;13.50;73.90;;;;;;5044310;28;20036;-65
2022/05/02 08:27:21;;;;;;;30.90;24.30;;;13.70;73.40;;;;;;5058895;28;20426;-66
2022/05/02 08:30:03;;;;;;;29.23;23.70;;;13.80;72.80;;;;;;5060930;28;20036;-65
2022/05/02 08:33:07;;;;;;;28.05;22.10;;;13.80;72.80;;;;;;5059783;28;20020;-65
2022/05/02 08:35:58;;;;;;;22.98;17.98;;;14.00;72.60;;;;;;5060559;28;20119;-65
2022/05/02 08:38:57;;;;;;;19.38;16.10;;;14.10;71.90;;;;;;5060013;28;20028;-65
2022/05/02 08:41:28;;;;;;;21.58;16.00;;;14.20;71.10;;;;;;5059894;28;21394;-66
2022/05/02 08:44:13;;;;;;;18.13;14.57;;;14.40;70.60;;;;;;5061712;28;20225;-64
2022/05/02 08:46:50;;;;;;;17.45;14.88;;;14.50;70.10;;;;;;5058087;28;20073;-65
2022/05/02 08:49:42;;;;;;;18.55;14.75;;;14.60;69.80;;;;;;5059779;28;20131;-67
2022/05/02 08:52:20;;;;;;;17.17;14.00;;;14.70;69.60;;;;;;5059912;28;20029;-66
2022/05/02 08:55:16;;;;;;;16.77;14.00;;;14.90;69.30;;;;;;5058998;28;20041;-65
2022/05/02 08:57:59;;;;;;;16.52;13.60;;;15.00;68.50;;;;;;5061234;28;20623;-66
2022/05/02 09:00:56;;;;;;;17.05;13.90;;;15.10;68.60;;;;;;5057156;28;20044;-65
2022/05/02 09:03:54;;;;;;;14.20;12.13;;;15.30;67.20;;;;;;5058469;28;20829;-65
2022/05/02 09:06:47;;;;;;;14.93;11.57;;;15.30;68.00;;;;;;5054279;28;20044;-65
2022/05/02 09:09:29;;;;;;;11.73;10.48;;;15.50;67.00;;;;;;5046511;28;20059;-65
2022/05/02 09:12:22;;;;;;;14.18;11.38;;;15.60;67.70;;;;;;5059528;28;20105;-66
2022/05/02 09:15:10;;;;;;;11.85;10.32;;;15.80;66.60;;;;;;5058042;28;20044;-66
2022/05/02 09:18:13;;;;;;;11.20;9.75;;;15.90;66.30;;;;;;5059659;28;20111;-64
2022/05/02 09:20:59;;;;;;;12.45;10.80;;;16.10;65.90;;;;;;5058938;28;20398;-66
2022/05/02 09:23:50;;;;;;;13.80;11.75;;;16.10;65.60;;;;;;5059595;28;20086;-66
2022/05/02 09:26:46;;;;;;;12.82;10.23;;;16.20;64.30;;;;;;5058657;28;20486;-66
2022/05/02 09:29:43;;;;;;;12.82;10.25;;;16.30;64.30;;;;;;5060419;28;20036;-65
2022/05/02 09:32:43;;;;;;;12.98;11.57;;;16.40;64.10;;;;;;5058325;28;20108;-64
2022/05/02 09:35:18;;;;;;;15.35;11.27;;;16.50;62.90;;;;;;5057683;28;20032;-65
2022/05/02 09:37:58;;;;;;;13.10;11.68;;;16.60;63.60;;;;;;5059622;28;20032;-66
2022/05/02 09:40:37;;;;;;;13.38;11.13;;;16.70;63.30;;;;;;5056894;28;20033;-65
2022/05/02 09:43:21;;;;;;;11.82;10.48;;;16.70;62.30;;;;;;5058716;28;20435;-66
2022/05/02 09:51:54;;;;;;;13.07;11.35;;;17.00;62.00;;;;;;5057405;28;20504;-66
2022/05/02 09:57:21;;;;;;;12.90;11.48;;;17.20;61.80;;;;;;5030446;28;20513;-66
2022/05/02 10:02:45;;;;;;;11.90;10.25;;;17.40;61.90;;;;;;5057072;28;20036;-65
2022/05/02 10:05:21;;;;;;;12.10;9.82;;;17.40;60.70;;;;;;5056962;28;20111;-66
2022/05/02 10:08:15;;;;;;;10.55;9.38;;;17.50;60.30;;;;;;5057419;28;20472;-64
2022/05/02 10:10:56;;;;;;;11.70;9.82;;;17.60;60.30;;;;;;5055639;28;20505;-65
2022/05/02 10:13:22;;;;;;;10.90;9.70;;;17.70;59.20;;;;;;5057907;28;20644;-65
2022/05/02 10:15:50;;;;;;;9.00;8.10;;;17.80;59.70;;;;;;5057594;28;20037;-65
2022/05/02 10:18:18;;;;;;;9.65;8.10;;;17.80;59.40;;;;;;5057948;28;20482;-66
2022/05/02 10:21:14;;;;;;;8.45;6.50;;;17.90;59.50;;;;;;5055822;28;20419;-65
2022/05/02 10:24:15;;;;;;;7.78;6.97;;;17.90;58.30;;;;;;5056449;28;20531;-65
2022/05/02 10:27:04;;;;;;;7.20;6.50;;;18.00;57.30;;;;;;5055543;28;20040;-64
2022/05/02 10:29:54;;;;;;;7.05;6.35;;;18.00;57.10;;;;;;5057025;28;20293;-65
2022/05/02 10:32:35;;;;;;;7.50;6.80;;;18.10;57.70;;;;;;5057460;28;20120;-66
2022/05/02 10:35:02;;;;;;;5.95;5.40;;;18.10;57.00;;;;;;5054720;28;20044;-66
2022/05/02 10:37:31;;;;;;;6.50;5.18;;;18.10;57.30;;;;;;5071008;28;20409;-66
2022/05/02 10:40:08;;;;;;;4.68;4.28;;;18.10;57.00;;;;;;5057935;28;20033;-66
2022/05/02 10:42:35;;;;;;;3.72;3.42;;;18.10;55.70;;;;;;5056538;28;20079;-66
2022/05/02 10:45:09;;;;;;;3.55;3.25;;;18.20;55.60;;;;;;5053862;28;20524;-66
2022/05/02 10:47:37;;;;;;;6.22;5.45;;;18.20;55.50;;;;;;5054705;28;20036;-66
2022/05/02 10:50:16;;;;;;;7.43;6.68;;;18.10;55.50;;;;;;5059166;28;20135;-66
2022/05/02 10:52:51;;;;;;;5.80;4.55;;;18.20;56.40;;;;;;5058437;28;20033;-66
2022/05/02 10:55:23;;;;;;;;;;;18.20;55.60;;;;;;5056868;28;20036;-66
2022/05/02 10:57:54;;;;;;;7.05;5.00;;;18.30;56.70;;;;;;5056672;28;20274;-65
2022/05/02 11:00:22;;;;;;;6.13;5.53;;;18.30;56.10;;;;;;5057634;28;20040;-66
2022/05/02 11:03:09;;;;;;;6.03;5.38;;;18.40;56.40;;;;;;5055154;28;20047;-65
2022/05/02 11:06:03;;;;;;;6.53;5.63;;;18.40;56.20;;;;;;5058040;28;20032;-66
2022/05/02 11:08:46;;;;;;;6.43;5.75;;;18.40;55.20;;;;;;5056285;28;20032;-67
2022/05/02 11:11:29;;;;;;;6.55;5.85;;;18.50;55.40;;;;;;5057288;28;20094;-66
2022/05/02 11:14:03;;;;;;;6.68;6.07;;;18.50;55.00;;;;;;5057233;28;20159;-66
2022/05/02 11:16:41;;;;;;;5.82;5.25;;;18.60;55.10;;;;;;5060497;28;20094;-66
2022/05/02 11:22:11;;;;;;;7.30;6.60;;;18.60;55.50;;;;;;5057784;28;20067;-66
2022/05/02 11:24:56;;;;;;;7.03;6.05;;;18.70;55.20;;;;;;5056511;28;20530;-65
2022/05/02 11:27:43;;;;;;;9.15;8.20;;;18.80;55.40;;;;;;5056538;28;20037;-67
2022/05/02 11:30:13;;;;;;;8.50;7.35;;;18.80;54.20;;;;;;5057789;28;20048;-66
2022/05/02 11:33:02;;;;;;;8.57;6.75;;;18.80;54.90;;;;;;5059425;28;20037;-66
2022/05/02 11:35:28;;;;;;;7.32;6.53;;;18.80;54.40;;;;;;5057092;28;20635;-66
2022/05/02 11:37:59;;;;;;;5.97;5.30;;;18.80;54.70;;;;;;5056332;28;20123;-67
2022/05/02 11:40:33;;;;;;;6.03;5.43;;;18.80;55.10;;;;;;5057102;28;20036;-66
2022/05/02 11:42:59;;;;;;;5.93;5.43;;;18.80;54.60;;;;;;5056595;28;20512;-66
2022/05/02 11:45:45;;;;;;;8.00;6.30;;;18.90;55.00;;;;;;5056438;28;20056;-67
2022/05/02 11:48:23;;;;;;;6.75;6.03;;;18.90;53.40;;;;;;5056183;28;20032;-66
2022/05/02 11:50:56;;;;;;;6.80;5.50;;;19.00;53.70;;;;;;5055993;28;20039;-66
2022/05/02 11:53:25;;;;;;;5.90;5.38;;;19.00;54.70;;;;;;5055677;28;20040;-65
2022/05/02 11:55:52;;;;;;;5.20;4.70;;;19.10;54.20;;;;;;5056223;28;20468;-65
2022/05/02 11:58:24;;;;;;;4.95;4.43;;;19.20;54.30;;;;;;5056544;28;20029;-66
2022/05/02 12:00:57;;;;;;;5.18;4.65;;;19.20;54.10;;;;;;5055551;28;20112;-66
2022/05/02 12:03:25;;;;;;;6.50;4.90;;;19.20;54.00;;;;;;5057521;28;20032;-67
2022/05/02 12:05:55;;;;;;;4.65;4.25;;;19.30;54.00;;;;;;5056334;28;20056;-66
2022/05/02 12:08:33;;;;;;;4.90;4.50;;;19.40;53.30;;;;;;5060928;28;20059;-67
2022/05/02 12:11:09;;;;;;;4.75;4.35;;;19.40;52.20;;;;;;5054557;28;20048;-66
2022/05/02 12:13:37;;;;;;;4.80;4.40;;;19.50;52.00;;;;;;5057792;28;20039;-66
2022/05/02 12:16:09;;;;;;;4.60;4.20;;;19.50;51.60;;;;;;5055141;28;20052;-66
2022/05/02 12:18:47;;;;;;;5.32;4.57;;;19.40;52.40;;;;;;5055373;28;20037;-66
2022/05/02 12:21:31;;;;;;;4.85;4.40;;;19.50;51.70;;;;;;5054834;28;20064;-66
2022/05/02 12:23:58;;;;;;;4.25;3.85;;;19.50;52.30;;;;;;5055427;28;20041;-66
2022/05/02 12:26:26;;;;;;;4.40;4.00;;;19.40;52.60;;;;;;5054977;28;20886;-66
2022/05/02 12:28:58;;;;;;;5.45;4.60;;;19.40;52.30;;;;;;5055014;28;20043;-65
2022/05/02 12:31:36;;;;;;;4.80;4.32;;;19.40;51.70;;;;;;5056900;28;20032;-66
2022/05/02 12:34:05;;;;;;;4.40;4.00;;;19.30;51.70;;;;;;5053786;28;20825;-66
2022/05/02 12:36:54;;;;;;;4.28;3.88;;;19.40;52.60;;;;;;5055337;28;20033;-66
2022/05/02 12:39:28;;;;;;;3.90;3.60;;;19.40;52.60;;;;;;5056983;28;20113;-66
2022/05/02 12:42:07;;;;;;;4.00;3.70;;;19.40;52.10;;;;;;5070134;28;20035;-66
2022/05/02 12:44:44;;;;;;;4.90;4.43;;;19.40;52.60;;;;;;5054671;28;20604;-66
2022/05/02 12:47:21;;;;;;;4.38;3.97;;;19.50;51.30;;;;;;5055572;28;20044;-66
2022/05/02 12:50:00;;;;;;;4.85;4.43;;;19.50;51.70;;;;;;5056656;28;20039;-66
2022/05/02 12:52:28;;;;;;;3.80;3.50;;;19.60;51.10;;;;;;5054674;28;20040;-66
2022/05/02 12:54:54;;;;;;;3.42;3.13;;;19.60;52.30;;;;;;5056653;28;20032;-65
2022/05/02 13:00:30;;;;;;;3.83;3.53;;;19.70;51.80;;;;;;5054263;28;20148;-66
2022/05/02 13:03:01;;;;;;;6.40;3.88;;;19.80;52.10;;;;;;5052276;28;20071;-66
2022/05/02 13:05:31;;;;;;;4.13;3.72;;;19.80;51.90;;;;;;5055582;28;20061;-66
2022/05/02 13:07:57;;;;;;;3.58;3.28;;;19.80;51.70;;;;;;5052741;28;20044;-66
2022/05/02 13:10:29;;;;;;;4.68;4.20;;;19.90;51.80;;;;;;5055778;28;20446;-66
2022/05/02 13:12:59;;;;;;;4.00;3.60;;;19.90;50.60;;;;;;5056862;28;20041;-66
2022/05/02 13:15:27;;;;;;;4.72;3.70;;;19.90;51.20;;;;;;5054981;28;20540;-65
2022/05/02 13:18:01;;;;;;;3.10;2.90;;;19.90;50.90;;;;;;5059419;28;20068;-66
2022/05/02 13:20:29;;;;;;;3.67;3.38;;;19.80;50.90;;;;;;5057767;28;20190;-67
2022/05/02 13:23:03;;;;;;;3.33;3.13;;;19.90;51.00;;;;;;5055957;28;20060;-66
2022/05/02 13:25:43;;;;;;;3.43;3.13;;;19.90;50.60;;;;;;5058300;28;20206;-66
2022/05/02 13:28:15;;;;;;;3.47;3.25;;;19.90;50.50;;;;;;5057701;28;20431;-65
2022/05/02 13:30:43;;;;;;;4.10;3.70;;;19.90;50.50;;;;;;5056256;28;20524;-65
2022/05/02 13:33:13;;;;;;;8.68;3.67;;;19.90;50.70;;;;;;5058846;28;20131;-65
2022/05/02 13:35:39;;;;;;;4.38;4.03;;;19.90;50.60;;;;;;5059032;28;20032;-66
2022/05/02 13:38:11;;;;;;;4.45;4.05;;;19.90;50.90;;;;;;5056279;28;20035;-66